createdAt,value
2023-04-11T00:00:44.389Z,13.48
2023-04-11T00:03:46.229Z,12.48
2023-04-11T00:06:48.043Z,13.55
2023-04-11T00:09:51.317Z,13.15
2023-04-11T00:12:53.540Z,12.45
2023-04-11T00:15:55.730Z,11.63
2023-04-11T00:18:57.957Z,13.05
2023-04-11T00:21:59.975Z,11.98
2023-04-11T00:25:03.083Z,12.43
2023-04-11T00:28:04.835Z,12.38
2023-04-11T00:31:07.291Z,11.48
2023-04-11T00:34:08.980Z,12.48
2023-04-11T00:37:10.707Z,11.90
2023-04-11T00:40:14.055Z,12.38
2023-04-11T00:43:15.769Z,11.13
2023-04-11T00:46:18.539Z,11.30
2023-04-11T00:49:20.493Z,11.55
2023-04-11T00:52:22.514Z,11.80
2023-04-11T00:55:27.243Z,12.05
2023-04-11T00:58:29.600Z,11.85
2023-04-11T01:01:31.227Z,12.60
2023-04-11T01:04:32.981Z,12.98
2023-04-11T01:07:36.104Z,13.88
2023-04-11T01:10:41.203Z,13.77
2023-04-11T01:13:43.056Z,13.35
2023-04-11T01:16:44.855Z,15.82
2023-04-11T01:19:46.563Z,14.18
2023-04-11T01:22:49.613Z,12.93
2023-04-11T01:25:52.768Z,13.82
2023-04-11T01:28:54.729Z,13.23
2023-04-11T01:31:56.555Z,13.82
2023-04-11T01:34:59.765Z,12.65
2023-04-11T01:38:01.374Z,14.73
2023-04-11T01:41:05.619Z,13.52
2023-04-11T01:44:07.669Z,14.23
2023-04-11T01:47:09.353Z,13.93
2023-04-11T01:50:11.035Z,14.38
2023-04-11T01:53:12.671Z,13.15
2023-04-11T01:56:15.794Z,14.43
2023-04-11T01:59:17.496Z,13.43
2023-04-11T02:02:19.521Z,13.25
2023-04-11T02:05:21.189Z,13.65
2023-04-11T02:08:22.898Z,13.32
2023-04-11T02:11:26.236Z,13.90
2023-04-11T02:14:38.704Z,13.95
2023-04-11T02:17:40.367Z,13.23
2023-04-11T02:20:42.304Z,13.93
2023-04-11T02:23:43.926Z,14.50
2023-04-11T02:26:46.983Z,12.30
2023-04-11T02:29:48.669Z,13.77
2023-04-11T02:32:50.492Z,13.10
2023-04-11T02:35:52.185Z,12.73
2023-04-11T02:38:54.189Z,11.52
2023-04-11T02:41:57.653Z,13.70
2023-04-11T02:44:59.320Z,12.52
2023-04-11T02:48:01.272Z,11.55
2023-04-11T02:51:02.958Z,10.75
2023-04-11T02:54:04.637Z,11.60
2023-04-11T02:57:07.886Z,11.23
2023-04-11T03:00:10.445Z,10.65
2023-04-11T03:03:12.794Z,10.43
2023-04-11T03:06:14.672Z,10.95
2023-04-11T03:09:16.579Z,12.38
2023-04-11T03:12:19.595Z,11.07
2023-04-11T03:15:21.581Z,11.93
2023-04-11T03:18:23.856Z,12.13
2023-04-11T03:21:25.635Z,10.90
2023-04-11T03:24:27.500Z,18.40
2023-04-11T03:27:30.749Z,55.58
2023-04-11T03:30:32.456Z,31.58
2023-04-11T03:33:34.099Z,18.70
2023-04-11T03:36:35.929Z,14.45
2023-04-11T03:39:37.576Z,13.77
2023-04-11T03:42:40.582Z,13.77
2023-04-11T03:45:42.272Z,14.00
2023-04-11T03:48:44.156Z,13.77
2023-04-11T03:51:46.655Z,14.07
2023-04-11T03:54:48.524Z,13.65
2023-04-11T03:57:51.652Z,15.13
2023-04-11T04:00:53.298Z,12.20
2023-04-11T04:03:55.437Z,14.77
2023-04-11T04:06:57.400Z,14.98
2023-04-11T04:09:59.271Z,14.48
2023-04-11T04:13:02.454Z,14.00
2023-04-11T04:16:04.734Z,14.25
2023-04-11T04:19:06.434Z,14.93
2023-04-11T04:22:08.811Z,14.65
2023-04-11T04:25:10.502Z,15.25
2023-04-11T04:28:13.516Z,13.65
2023-04-11T04:31:15.358Z,15.18
2023-04-11T04:34:17.369Z,18.13
2023-04-11T04:37:19.199Z,17.85
2023-04-11T04:40:21.054Z,20.10
2023-04-11T04:43:24.540Z,17.98
2023-04-11T04:46:26.426Z,17.05
2023-04-11T04:49:28.062Z,17.45
2023-04-11T04:52:30.284Z,15.65
2023-04-11T04:55:32.689Z,15.98
2023-04-11T04:58:35.978Z,16.73
2023-04-11T05:01:37.707Z,16.92
2023-04-11T05:04:39.473Z,18.40
2023-04-11T05:07:41.444Z,17.42
2023-04-11T05:10:43.145Z,17.70
2023-04-11T05:13:46.153Z,15.65
2023-04-11T05:16:47.887Z,14.40
2023-04-11T05:19:49.690Z,16.45
2023-04-11T05:22:52.397Z,18.20
2023-04-11T05:25:54.029Z,18.60
2023-04-11T05:28:57.108Z,14.55
2023-04-11T05:31:58.835Z,14.55
2023-04-11T05:35:00.527Z,15.57
2023-04-11T05:38:02.229Z,14.75
2023-04-11T05:41:04.240Z,15.38
2023-04-11T05:44:07.278Z,15.85
2023-04-11T05:47:08.946Z,15.32
2023-04-11T05:50:10.883Z,13.98
2023-04-11T05:53:12.742Z,16.45
2023-04-11T05:56:14.647Z,13.75
2023-04-11T05:59:21.619Z,13.07
2023-04-11T06:02:27.123Z,12.00
2023-04-11T06:05:28.927Z,15.30
2023-04-11T06:08:31.243Z,14.35
2023-04-11T06:11:33.215Z,11.07
2023-04-11T06:14:38.103Z,10.45
2023-04-11T06:17:41.348Z,13.73
2023-04-11T06:20:43.161Z,12.82
2023-04-11T06:23:45.071Z,14.77
2023-04-11T06:26:46.980Z,20.60
2023-04-11T06:29:50.120Z,16.98
2023-04-11T06:32:51.904Z,14.93
2023-04-11T06:35:53.696Z,13.27
2023-04-11T06:38:55.398Z,9.43
2023-04-11T06:41:57.036Z,8.38
2023-04-11T06:45:00.710Z,9.45
2023-04-11T06:51:04.473Z,8.50
2023-04-11T06:54:06.511Z,8.80
2023-04-11T06:57:08.129Z,8.73
2023-04-11T07:00:12.304Z,8.40
2023-04-11T07:03:14.859Z,8.23
2023-04-11T07:06:17.091Z,6.78
2023-04-11T07:09:18.817Z,6.43
2023-04-11T07:12:20.434Z,6.53
2023-04-11T07:15:23.583Z,5.45
2023-04-11T07:18:25.586Z,4.40
2023-04-11T07:21:27.335Z,5.45
2023-04-11T07:24:29.045Z,4.22
2023-04-11T07:27:30.760Z,4.97
2023-04-11T07:30:34.235Z,5.60
2023-04-11T07:33:36.225Z,4.40
2023-04-11T07:36:38.051Z,4.72
2023-04-11T07:39:39.800Z,4.70
2023-04-11T07:42:41.502Z,4.18
2023-04-11T07:45:44.671Z,5.22
2023-04-11T07:48:46.317Z,5.20
2023-04-11T07:51:48.056Z,5.18
2023-04-11T07:54:49.695Z,5.72
2023-04-11T07:57:51.398Z,6.05
2023-04-11T08:00:54.510Z,5.57
2023-04-11T08:03:56.988Z,5.97
2023-04-11T08:06:59.584Z,5.80
2023-04-11T08:10:01.348Z,5.47
2023-04-11T08:13:02.969Z,5.35
2023-04-11T08:16:08.973Z,5.40
2023-04-11T08:19:10.850Z,5.32
2023-04-11T08:22:12.552Z,4.40
2023-04-11T08:25:15.323Z,5.47
2023-04-11T08:28:17.292Z,5.20
2023-04-11T08:31:20.550Z,5.25
2023-04-11T08:34:22.288Z,4.28
2023-04-11T08:37:24.256Z,4.32
2023-04-11T08:40:27.158Z,3.75
2023-04-11T08:43:29.043Z,3.72
2023-04-11T08:46:32.976Z,3.83
2023-04-11T08:49:34.887Z,3.70
2023-04-11T08:52:38.735Z,3.85
2023-04-11T08:55:46.742Z,4.22
2023-04-11T08:58:48.480Z,4.00
2023-04-11T09:01:51.658Z,3.58
2023-04-11T09:04:53.635Z,3.97
2023-04-11T09:07:55.539Z,3.28
2023-04-11T09:11:01.143Z,3.63
2023-04-11T09:14:06.588Z,3.92
2023-04-11T09:17:09.725Z,3.85
2023-04-11T09:20:17.246Z,4.13
2023-04-11T09:23:23.164Z,4.28
2023-04-11T09:26:27.697Z,4.50
2023-04-11T09:29:37.104Z,4.82
2023-04-11T09:35:41.753Z,4.35
2023-04-11T09:38:43.519Z,4.28
2023-04-11T09:41:45.766Z,5.05
2023-04-11T09:44:47.833Z,4.90
2023-04-11T09:47:52.959Z,5.07
2023-04-11T09:50:58.551Z,5.15
2023-04-11T09:54:02.295Z,4.50
2023-04-11T09:57:05.410Z,4.43
2023-04-11T10:00:09.406Z,4.50
2023-04-11T10:03:12.609Z,5.13
2023-04-11T10:06:21.999Z,4.05
2023-04-11T10:09:24.092Z,4.35
2023-04-11T10:12:30.961Z,4.63
2023-04-11T10:15:32.798Z,4.70
2023-04-11T10:18:36.017Z,4.40
2023-04-11T10:21:38.284Z,5.13
2023-04-11T10:24:40.157Z,4.50
2023-04-11T10:27:49.512Z,4.57
2023-04-11T10:30:59.767Z,4.25
2023-04-11T10:34:13.513Z,5.03
2023-04-11T10:37:15.458Z,5.20
2023-04-11T10:40:17.431Z,4.45
2023-04-11T10:43:19.904Z,4.75
2023-04-11T10:46:22.491Z,4.35
2023-04-11T10:49:39.595Z,5.07
2023-04-11T10:52:41.332Z,4.65
2023-04-11T10:55:46.049Z,5.47
2023-04-11T10:58:47.800Z,5.32
2023-04-11T11:01:54.658Z,7.80
2023-04-11T11:04:58.149Z,11.10
2023-04-11T11:07:59.808Z,6.30
2023-04-11T11:11:02.581Z,5.70
2023-04-11T11:14:04.568Z,6.03
2023-04-11T11:17:06.710Z,6.10
2023-04-11T11:20:17.061Z,6.00
2023-04-11T11:23:18.757Z,6.00
2023-04-11T11:26:20.610Z,6.07
2023-04-11T11:29:30.451Z,6.03
2023-04-11T11:32:32.454Z,5.43
2023-04-11T11:35:35.854Z,5.93
2023-04-11T11:38:37.714Z,8.57
2023-04-11T11:41:40.977Z,6.38
2023-04-11T11:44:42.793Z,5.85
2023-04-11T11:47:45.452Z,6.15
2023-04-11T11:50:55.945Z,8.05
2023-04-11T11:54:05.089Z,6.90
2023-04-11T11:57:06.886Z,6.40
2023-04-11T12:00:09.889Z,6.35
2023-04-11T12:03:12.000Z,6.22
2023-04-11T12:06:15.492Z,6.65
2023-04-11T12:12:18.783Z,7.47
2023-04-11T12:15:22.640Z,6.20
2023-04-11T12:18:26.095Z,7.32
2023-04-11T12:24:30.906Z,6.68
2023-04-11T12:27:32.797Z,9.00
2023-04-11T12:30:34.718Z,9.30
2023-04-11T12:33:36.458Z,9.63
2023-04-11T12:36:39.485Z,10.05
2023-04-11T12:39:41.484Z,9.18
2023-04-11T12:42:55.252Z,8.63
2023-04-11T12:46:06.719Z,10.68
2023-04-11T12:49:08.494Z,9.00
2023-04-11T12:52:11.908Z,10.40
2023-04-11T12:58:15.661Z,7.28
2023-04-11T13:01:17.463Z,7.60
2023-04-11T13:04:19.298Z,7.00
2023-04-11T13:07:22.619Z,7.60
2023-04-11T13:10:24.806Z,6.75
2023-04-11T13:13:26.758Z,7.07
2023-04-11T13:16:28.528Z,7.40
2023-04-11T13:19:30.495Z,7.05
2023-04-11T13:22:33.762Z,6.93
2023-04-11T13:25:36.054Z,7.65
2023-04-11T13:28:38.201Z,7.95
2023-04-11T13:31:40.166Z,6.97
2023-04-11T13:34:41.806Z,7.97
2023-04-11T13:37:44.826Z,7.20
2023-04-11T13:40:46.782Z,6.35
2023-04-11T13:43:48.687Z,6.25
2023-04-11T13:46:52.811Z,6.55
2023-04-11T13:49:54.512Z,6.70
2023-04-11T13:52:59.111Z,7.40
2023-04-11T13:56:00.868Z,6.70
2023-04-11T13:59:02.808Z,6.60
2023-04-11T14:02:04.590Z,6.95
2023-04-11T14:05:07.319Z,8.02
2023-04-11T14:08:10.400Z,7.95
2023-04-11T14:11:12.340Z,6.38
2023-04-11T14:14:14.041Z,8.52
2023-04-11T14:17:15.767Z,8.05
2023-04-11T14:20:17.771Z,7.70
2023-04-11T14:23:21.119Z,7.43
2023-04-11T14:32:26.329Z,5.75
2023-04-11T14:35:28.319Z,6.57
2023-04-11T14:38:31.418Z,6.72
2023-04-11T14:41:33.630Z,7.63
2023-04-11T14:44:35.314Z,6.38
2023-04-11T14:47:37.334Z,6.03
2023-04-11T14:50:39.075Z,5.35
2023-04-11T14:53:42.150Z,5.93
2023-04-11T14:56:44.051Z,5.43
2023-04-11T14:59:45.957Z,5.15
2023-04-11T15:02:49.360Z,5.47
2023-04-11T15:05:51.096Z,5.82
2023-04-11T15:08:54.336Z,5.75
2023-04-11T15:11:56.214Z,5.72
2023-04-11T15:14:58.141Z,5.05
2023-04-11T15:18:20.342Z,5.18
2023-04-11T15:21:22.360Z,4.65
2023-04-11T15:24:25.438Z,5.85
2023-04-11T15:27:27.339Z,4.60
2023-04-11T15:30:29.039Z,3.45
2023-04-11T15:33:30.754Z,3.90
2023-04-11T15:36:32.669Z,4.40
2023-04-11T15:39:35.753Z,4.85
2023-04-11T15:42:37.848Z,3.55
2023-04-11T15:45:39.721Z,3.00
2023-04-11T15:48:41.404Z,2.30
2023-04-11T15:51:45.015Z,2.53
2023-04-11T15:54:48.488Z,2.10
2023-04-11T15:57:50.660Z,1.83
2023-04-11T16:00:52.456Z,2.00
2023-04-11T16:03:54.461Z,1.80
2023-04-11T16:06:56.477Z,2.08
2023-04-11T16:09:59.765Z,2.75
2023-04-11T16:13:01.601Z,2.40
2023-04-11T16:16:03.669Z,2.90
2023-04-11T16:19:05.759Z,2.28
2023-04-11T16:22:07.478Z,2.42
2023-04-11T16:25:10.933Z,2.28
2023-04-11T16:28:12.745Z,2.47
2023-04-11T16:31:15.545Z,2.83
2023-04-11T16:34:17.392Z,2.50
2023-04-11T16:37:19.477Z,2.92
2023-04-11T16:40:22.872Z,3.92
2023-04-11T16:43:25.087Z,2.88
2023-04-11T16:46:26.935Z,2.58
2023-04-11T16:49:28.921Z,3.20
2023-04-11T16:52:31.078Z,3.28
2023-04-11T16:55:34.224Z,2.85
2023-04-11T16:58:36.228Z,3.58
2023-04-11T17:01:38.117Z,3.50
2023-04-11T17:04:40.097Z,3.22
2023-04-11T17:07:41.808Z,2.85
2023-04-11T17:10:45.528Z,2.95
2023-04-11T17:16:49.155Z,3.13
2023-04-11T17:19:51.329Z,3.53
2023-04-11T17:22:53.400Z,3.85
2023-04-11T17:25:56.479Z,3.33
2023-04-11T17:28:58.450Z,2.83
2023-04-11T17:32:01.787Z,2.67
2023-04-11T17:35:03.808Z,2.90
2023-04-11T17:38:05.911Z,5.40
2023-04-11T17:44:13.913Z,3.45
2023-04-11T17:47:15.792Z,3.13
2023-04-11T17:50:17.579Z,3.78
2023-04-11T17:53:19.353Z,3.00
2023-04-11T17:56:22.825Z,3.30
2023-04-11T17:59:24.807Z,5.13
2023-04-11T18:02:26.851Z,7.10
2023-04-11T18:05:30.159Z,6.80
2023-04-11T18:08:49.050Z,6.30
2023-04-11T18:11:53.489Z,5.88
2023-04-11T18:14:55.711Z,7.43
2023-04-11T18:17:57.770Z,6.45
2023-04-11T18:21:04.877Z,5.88
2023-04-11T18:24:09.588Z,4.57
2023-04-11T18:27:12.735Z,5.78
2023-04-11T18:30:16.141Z,6.50
2023-04-11T18:33:18.989Z,5.95
2023-04-11T18:36:22.327Z,6.53
2023-04-11T18:39:24.486Z,8.00
2023-04-11T18:42:30.794Z,9.18
2023-04-11T18:45:32.753Z,8.82
2023-04-11T18:48:34.939Z,9.80
2023-04-11T18:51:37.488Z,7.10
2023-04-11T18:54:41.101Z,7.25
2023-04-11T18:57:49.156Z,7.93
2023-04-11T19:00:57.923Z,6.72
2023-04-11T19:04:01.673Z,7.47
2023-04-11T19:07:04.266Z,6.35
2023-04-11T19:10:07.586Z,6.05
2023-04-11T19:13:11.675Z,5.97
2023-04-11T19:16:14.098Z,7.05
2023-04-11T19:19:17.242Z,5.88
2023-04-11T19:22:19.366Z,7.35
2023-04-11T19:25:21.887Z,5.05
2023-04-11T19:28:25.775Z,6.65
2023-04-11T19:31:28.155Z,6.75
2023-04-11T19:34:30.253Z,7.57
2023-04-11T19:37:33.669Z,6.95
2023-04-11T19:40:37.597Z,6.20
2023-04-11T19:43:42.541Z,6.00
2023-04-11T19:46:44.321Z,8.05
2023-04-11T19:49:47.346Z,7.10
2023-04-11T19:52:49.867Z,6.28
2023-04-11T19:55:52.616Z,6.57
2023-04-11T19:58:56.406Z,7.22
2023-04-11T20:05:02.323Z,6.03
2023-04-11T20:08:05.539Z,6.47
2023-04-11T20:11:07.955Z,5.13
2023-04-11T20:14:11.538Z,6.68
2023-04-11T20:17:13.284Z,5.43
2023-04-11T20:20:16.413Z,6.78
2023-04-11T20:23:19.584Z,5.18
2023-04-11T20:26:22.518Z,5.22
2023-04-11T20:29:25.615Z,5.60
2023-04-11T20:32:27.328Z,6.32
2023-04-11T20:35:29.235Z,5.20
2023-04-11T20:38:31.153Z,6.20
2023-04-11T20:41:32.807Z,5.13
2023-04-11T20:44:35.844Z,5.75
2023-04-11T20:47:38.072Z,5.38
2023-04-11T20:50:40.684Z,4.90
2023-04-11T20:53:42.381Z,4.35
2023-04-11T20:56:44.150Z,5.30
2023-04-11T20:59:47.238Z,4.00
2023-04-11T21:02:50.089Z,4.72
2023-04-11T21:05:52.429Z,3.35
2023-04-11T21:08:54.117Z,4.10
2023-04-11T21:11:56.012Z,5.53
2023-04-11T21:14:59.384Z,4.15
2023-04-11T21:18:01.050Z,4.00
2023-04-11T21:21:05.912Z,4.55
2023-04-11T21:24:08.046Z,5.00
2023-04-11T21:27:09.770Z,5.28
2023-04-11T21:30:14.261Z,11.32
2023-04-11T21:33:15.900Z,6.18
2023-04-11T21:36:17.602Z,5.40
2023-04-11T21:39:19.574Z,2.72
2023-04-11T21:42:21.716Z,2.67
2023-04-11T21:45:24.753Z,2.78
2023-04-11T21:48:26.401Z,2.10
2023-04-11T21:51:28.091Z,2.42
2023-04-11T21:54:30.036Z,2.50
2023-04-11T21:57:32.441Z,2.33
2023-04-11T22:00:35.544Z,2.17
2023-04-11T22:03:37.365Z,1.83
2023-04-11T22:06:39.271Z,1.90
2023-04-11T22:09:41.092Z,1.58
2023-04-11T22:12:42.858Z,1.73
2023-04-11T22:15:46.604Z,1.60
2023-04-11T22:21:49.700Z,1.90
2023-04-11T22:24:51.667Z,1.63
2023-04-11T22:27:53.357Z,1.35
2023-04-11T22:30:56.657Z,1.70
2023-04-11T22:33:59.372Z,1.98
2023-04-11T22:37:01.227Z,1.67
2023-04-11T22:40:02.914Z,2.00
2023-04-11T22:43:04.765Z,1.80
2023-04-11T22:46:07.870Z,2.00
2023-04-11T22:49:09.674Z,1.33
2023-04-11T22:52:13.078Z,1.50
2023-04-11T22:55:15.355Z,1.98
2023-04-11T22:58:17.009Z,2.00
2023-04-11T23:01:20.120Z,2.30
2023-04-11T23:04:21.762Z,1.90
2023-04-11T23:07:23.655Z,1.83
2023-04-11T23:10:25.688Z,2.10
2023-04-11T23:13:27.350Z,2.33
2023-04-11T23:16:30.426Z,2.55
2023-04-11T23:19:32.160Z,1.98
2023-04-11T23:22:33.909Z,2.30
2023-04-11T23:25:37.971Z,2.28
2023-04-11T23:28:39.627Z,1.65
2023-04-11T23:31:42.803Z,2.28
2023-04-11T23:34:44.695Z,2.72
2023-04-11T23:37:46.530Z,1.77
2023-04-11T23:40:48.244Z,1.90
2023-04-11T23:43:50.382Z,2.10
2023-04-11T23:46:53.397Z,2.40
2023-04-11T23:49:55.045Z,2.20
2023-04-11T23:52:56.941Z,2.33
2023-04-11T23:55:58.982Z,2.20
2023-04-11T23:59:00.657Z,1.98
